createdAt,value
2017-09-01T00:00:43.061Z,92.90
2017-09-01T00:03:11.175Z,92.90
2017-09-01T00:05:39.592Z,92.90
2017-09-01T00:08:07.733Z,92.60
2017-09-01T00:10:36.772Z,92.30
2017-09-01T00:13:04.879Z,92.20
2017-09-01T00:15:32.976Z,92.10
2017-09-01T00:18:02.159Z,92.20
2017-09-01T00:20:30.268Z,92.60
2017-09-01T00:22:59.183Z,92.60
2017-09-01T00:25:28.108Z,92.40
2017-09-01T00:27:57.251Z,92.60
2017-09-01T00:30:26.367Z,92.40
2017-09-01T00:32:54.528Z,92.90
2017-09-01T00:35:22.680Z,92.60
2017-09-01T00:37:52.603Z,92.80
2017-09-01T00:40:21.634Z,92.60
2017-09-01T00:42:50.480Z,92.90
2017-09-01T00:45:18.689Z,92.60
2017-09-01T00:47:46.819Z,92.70
2017-09-01T00:50:15.932Z,92.70
2017-09-01T00:52:44.068Z,92.80
2017-09-01T00:55:13.108Z,92.90
2017-09-01T00:57:43.133Z,92.60
2017-09-01T01:00:11.267Z,93.00
2017-09-01T01:02:40.276Z,92.70
2017-09-01T01:05:09.514Z,92.80
2017-09-01T01:07:37.629Z,93.00
2017-09-01T01:10:05.767Z,92.80
2017-09-01T01:12:34.145Z,93.20
2017-09-01T01:15:02.520Z,92.90
2017-09-01T01:17:30.631Z,93.20
2017-09-01T01:19:58.732Z,93.10
2017-09-01T01:22:26.877Z,93.00
2017-09-01T01:24:55.072Z,92.90
2017-09-01T01:27:24.163Z,92.60
2017-09-01T01:29:52.380Z,92.80
2017-09-01T01:32:21.328Z,93.20
2017-09-01T01:34:50.304Z,93.30
2017-09-01T01:37:21.085Z,93.20
2017-09-01T01:39:50.028Z,93.00
2017-09-01T01:42:19.060Z,93.30
2017-09-01T01:44:47.179Z,93.10
2017-09-01T01:47:15.507Z,92.80
2017-09-01T01:49:44.768Z,93.20
2017-09-01T01:52:13.513Z,92.90
2017-09-01T01:54:42.521Z,93.60
2017-09-01T01:57:11.438Z,93.50
2017-09-01T01:59:39.640Z,93.50
2017-09-01T02:02:08.045Z,93.50
2017-09-01T02:04:36.147Z,93.50
2017-09-01T02:07:08.040Z,93.50
2017-09-01T02:09:36.119Z,93.00
2017-09-01T02:12:04.268Z,93.20
2017-09-01T02:14:32.368Z,93.30
2017-09-01T02:17:00.491Z,93.30
2017-09-01T02:19:29.508Z,93.50
2017-09-01T02:21:59.705Z,93.60
2017-09-01T02:24:28.061Z,93.20
2017-09-01T02:26:56.706Z,93.50
2017-09-01T02:29:24.964Z,93.70
2017-09-01T02:31:53.055Z,93.30
2017-09-01T02:34:21.853Z,93.30
2017-09-01T02:36:50.237Z,93.20
2017-09-01T02:39:19.177Z,93.70
2017-09-01T02:41:47.404Z,93.40
2017-09-01T02:44:15.540Z,93.50
2017-09-01T02:46:43.828Z,93.50
2017-09-01T02:49:11.943Z,93.50
2017-09-01T02:51:40.048Z,93.50
2017-09-01T02:54:09.306Z,93.50
2017-09-01T02:56:37.656Z,93.50
2017-09-01T02:59:05.816Z,93.60
2017-09-01T03:01:33.931Z,93.50
2017-09-01T03:04:02.064Z,93.50
2017-09-01T03:06:30.173Z,93.70
2017-09-01T03:08:58.472Z,93.50
2017-09-01T03:11:26.719Z,93.40
2017-09-01T03:13:54.830Z,93.40
2017-09-01T03:16:22.966Z,93.50
2017-09-01T03:18:51.113Z,93.50
2017-09-01T03:21:19.476Z,93.50
2017-09-01T03:23:48.248Z,93.30
2017-09-01T03:26:16.682Z,93.30
2017-09-01T03:28:44.779Z,93.70
2017-09-01T03:31:14.931Z,93.50
2017-09-01T03:33:43.844Z,93.60
2017-09-01T03:36:11.990Z,93.60
2017-09-01T03:38:41.332Z,93.60
2017-09-01T03:41:10.343Z,93.30
2017-09-01T03:43:39.301Z,93.50
2017-09-01T03:46:07.534Z,93.60
2017-09-01T03:48:36.468Z,93.40
2017-09-01T03:51:05.497Z,93.30
2017-09-01T03:53:34.508Z,93.40
2017-09-01T03:56:03.436Z,93.60
2017-09-01T03:58:31.612Z,93.40
2017-09-01T04:00:59.832Z,93.50
2017-09-01T04:03:28.165Z,93.40
2017-09-01T04:05:57.063Z,93.80
2017-09-01T04:08:25.310Z,93.70
2017-09-01T04:10:54.583Z,93.60
2017-09-01T04:13:23.645Z,93.50
2017-09-01T04:15:51.767Z,93.40
2017-09-01T04:18:20.115Z,93.60
2017-09-01T04:20:48.200Z,93.30
2017-09-01T04:23:16.323Z,93.50
2017-09-01T04:25:44.796Z,93.50
2017-09-01T04:28:13.335Z,93.70
2017-09-01T04:30:42.607Z,93.70
2017-09-01T04:33:10.983Z,93.70
2017-09-01T04:35:39.871Z,93.60
2017-09-01T04:38:08.871Z,93.50
2017-09-01T04:40:36.989Z,93.50
2017-09-01T04:43:05.099Z,93.50
2017-09-01T04:45:33.422Z,93.40
2017-09-01T04:48:02.379Z,93.30
2017-09-01T04:50:32.331Z,93.50
2017-09-01T04:53:00.512Z,93.50
2017-09-01T04:55:28.615Z,93.50
2017-09-01T04:57:56.704Z,93.50
2017-09-01T05:00:24.971Z,93.20
2017-09-01T05:02:53.295Z,93.60
2017-09-01T05:05:23.547Z,93.60
2017-09-01T05:07:51.948Z,93.50
2017-09-01T05:10:20.119Z,93.60
2017-09-01T05:12:48.960Z,93.40
2017-09-01T05:15:17.080Z,93.50
2017-09-01T05:17:45.203Z,93.40
2017-09-01T05:20:13.619Z,93.00
2017-09-01T05:22:41.956Z,93.20
2017-09-01T05:25:10.503Z,93.10
2017-09-01T05:27:38.664Z,93.40
2017-09-01T05:30:07.000Z,93.20
2017-09-01T05:32:35.438Z,93.00
2017-09-01T05:35:03.594Z,93.10
2017-09-01T05:37:31.839Z,93.20
2017-09-01T05:40:00.884Z,93.10
2017-09-01T05:42:29.847Z,92.50
2017-09-01T05:44:58.716Z,92.90
2017-09-01T05:47:26.909Z,92.70
2017-09-01T05:49:55.132Z,92.80
2017-09-01T05:52:24.268Z,92.60
2017-09-01T05:54:52.452Z,92.40
2017-09-01T05:57:20.650Z,93.00
2017-09-01T05:59:49.006Z,92.50
2017-09-01T06:02:17.123Z,92.50
2017-09-01T06:04:45.452Z,92.30
2017-09-01T06:07:13.819Z,92.60
2017-09-01T06:09:42.187Z,92.50
2017-09-01T06:12:10.279Z,91.70
2017-09-01T06:14:39.499Z,92.00
2017-09-01T06:17:08.531Z,91.80
2017-09-01T06:19:36.610Z,92.20
2017-09-01T06:22:04.970Z,92.50
2017-09-01T06:24:33.331Z,92.30
2017-09-01T06:27:01.451Z,91.70
2017-09-01T06:29:29.884Z,92.00
2017-09-01T06:31:58.191Z,92.00
2017-09-01T06:34:26.569Z,91.50
2017-09-01T06:36:55.232Z,92.20
2017-09-01T06:39:24.276Z,91.80
2017-09-01T06:41:52.528Z,91.40
2017-09-01T06:44:20.958Z,91.40
2017-09-01T06:46:49.418Z,91.60
2017-09-01T06:49:17.567Z,91.60
2017-09-01T06:51:46.860Z,91.00
2017-09-01T06:54:15.332Z,91.30
2017-09-01T06:56:43.502Z,92.30
2017-09-01T06:59:11.599Z,90.90
2017-09-01T07:01:39.716Z,91.60
2017-09-01T07:04:07.827Z,91.90
2017-09-01T07:06:36.796Z,92.00
2017-09-01T07:09:04.930Z,92.10
2017-09-01T07:11:33.271Z,91.60
2017-09-01T07:14:01.403Z,92.10
2017-09-01T07:16:29.697Z,92.80
2017-09-01T07:19:01.838Z,92.20
2017-09-01T07:21:31.252Z,92.40
2017-09-01T07:23:59.773Z,91.80
2017-09-01T07:26:27.865Z,91.90
2017-09-01T07:28:55.984Z,92.60
2017-09-01T07:31:24.170Z,92.30
2017-09-01T07:33:52.272Z,91.90
2017-09-01T07:36:21.072Z,92.10
2017-09-01T07:38:49.470Z,92.10
2017-09-01T07:41:17.620Z,92.10
2017-09-01T07:43:45.736Z,91.70
2017-09-01T07:46:13.844Z,92.00
2017-09-01T07:48:42.783Z,92.00
2017-09-01T07:51:11.058Z,91.40
2017-09-01T07:53:39.530Z,91.50
2017-09-01T07:56:07.631Z,91.30
2017-09-01T07:58:35.831Z,91.20
2017-09-01T08:01:03.951Z,91.00
2017-09-01T08:03:32.134Z,90.60
2017-09-01T08:06:01.153Z,90.60
2017-09-01T08:08:29.268Z,91.00
2017-09-01T08:10:57.358Z,90.50
2017-09-01T08:13:25.481Z,90.10
2017-09-01T08:15:53.574Z,89.80
2017-09-01T08:18:23.039Z,90.10
2017-09-01T08:20:51.958Z,90.00
2017-09-01T08:23:20.926Z,90.40
2017-09-01T08:25:49.141Z,90.00
2017-09-01T08:28:18.167Z,90.10
2017-09-01T08:30:46.538Z,90.00
2017-09-01T08:33:14.631Z,88.20
2017-09-01T08:35:42.727Z,87.80
2017-09-01T08:38:11.794Z,89.60
2017-09-01T08:40:39.976Z,88.40
2017-09-01T08:43:08.353Z,89.50
2017-09-01T08:45:36.465Z,89.10
2017-09-01T08:48:04.624Z,90.20
2017-09-01T08:50:32.739Z,90.10
2017-09-01T08:53:00.932Z,90.30
2017-09-01T08:55:29.107Z,90.10
2017-09-01T08:57:57.327Z,87.60
2017-09-01T09:00:25.467Z,87.20
2017-09-01T09:02:53.702Z,86.20
2017-09-01T09:05:21.798Z,84.90
2017-09-01T09:07:49.907Z,85.20
2017-09-01T09:10:18.004Z,83.40
2017-09-01T09:12:46.169Z,85.10
2017-09-01T09:15:14.351Z,86.70
2017-09-01T09:17:42.468Z,87.60
2017-09-01T09:20:10.591Z,85.10
2017-09-01T09:22:39.588Z,85.30
2017-09-01T09:25:07.703Z,86.20
2017-09-01T09:27:36.707Z,86.00
2017-09-01T09:30:04.852Z,86.70
2017-09-01T09:32:33.018Z,84.60
2017-09-01T09:35:01.172Z,80.60
2017-09-01T09:37:29.276Z,79.50
2017-09-01T09:39:57.389Z,79.00
2017-09-01T09:42:25.508Z,79.10
2017-09-01T09:44:54.657Z,80.60
2017-09-01T09:47:22.788Z,81.50
2017-09-01T09:49:50.883Z,81.20
2017-09-01T09:52:19.856Z,81.20
2017-09-01T09:54:48.865Z,81.20
2017-09-01T09:57:16.955Z,83.00
2017-09-01T09:59:45.864Z,82.30
2017-09-01T10:02:14.029Z,80.60
2017-09-01T10:04:43.228Z,80.80
2017-09-01T10:07:12.124Z,81.60
2017-09-01T10:09:40.254Z,80.70
2017-09-01T10:12:08.364Z,79.10
2017-09-01T10:14:37.311Z,79.50
2017-09-01T10:17:05.694Z,80.50
2017-09-01T10:19:33.808Z,80.70
2017-09-01T10:22:02.355Z,81.00
2017-09-01T10:24:30.457Z,81.10
2017-09-01T10:26:59.773Z,77.70
2017-09-01T10:29:27.884Z,79.20
2017-09-01T10:31:57.076Z,78.00
2017-09-01T10:34:26.113Z,78.70
2017-09-01T10:36:54.351Z,77.90
2017-09-01T10:39:23.277Z,78.00
2017-09-01T10:41:52.611Z,74.20
2017-09-01T10:44:20.857Z,74.50
2017-09-01T10:46:49.744Z,78.10
2017-09-01T10:49:33.081Z,76.10
2017-09-01T10:52:19.884Z,73.60
2017-09-01T10:55:06.510Z,77.50
2017-09-01T11:00:46.524Z,75.20
2017-09-01T11:03:15.534Z,74.40
2017-09-01T11:05:43.694Z,75.00
2017-09-01T11:08:13.245Z,78.20
2017-09-01T11:10:42.264Z,75.90
2017-09-01T11:13:11.378Z,72.30
2017-09-01T11:15:39.472Z,76.40
2017-09-01T11:18:07.580Z,75.50
2017-09-01T11:20:41.423Z,76.50
2017-09-01T11:23:15.241Z,73.50
2017-09-01T11:25:44.130Z,70.10
2017-09-01T11:28:13.088Z,73.30
2017-09-01T11:30:41.249Z,68.70
2017-09-01T11:33:09.367Z,69.90
2017-09-01T11:35:38.408Z,71.10
2017-09-01T11:38:06.495Z,69.50
2017-09-01T11:40:37.723Z,69.70
2017-09-01T11:43:05.862Z,71.60
2017-09-01T11:45:33.948Z,71.80
2017-09-01T11:48:02.248Z,71.00
2017-09-01T11:50:30.352Z,68.20
2017-09-01T11:52:58.607Z,69.50
2017-09-01T11:55:27.513Z,69.10
2017-09-01T11:57:55.612Z,65.70
2017-09-01T12:00:23.680Z,66.40
2017-09-01T12:02:51.796Z,68.40
2017-09-01T12:05:19.910Z,72.70
2017-09-01T12:07:48.132Z,72.70
2017-09-01T12:10:17.176Z,69.20
2017-09-01T12:12:47.296Z,64.30
2017-09-01T12:15:15.495Z,63.00
2017-09-01T12:17:43.597Z,66.60
2017-09-01T12:20:12.555Z,66.10
2017-09-01T12:22:40.678Z,68.90
2017-09-01T12:25:08.759Z,67.80
2017-09-01T12:27:37.769Z,67.70
2017-09-01T12:30:06.875Z,66.80
2017-09-01T12:38:50.251Z,67.50
2017-09-01T12:41:18.356Z,73.20
2017-09-01T12:43:47.373Z,67.50
2017-09-01T12:46:19.467Z,70.30
2017-09-01T12:48:51.208Z,66.50
2017-09-01T12:51:20.307Z,69.80
2017-09-01T12:53:48.407Z,67.70
2017-09-01T12:59:06.219Z,74.20
2017-09-01T13:01:36.275Z,69.30
2017-09-01T13:04:05.184Z,61.30
2017-09-01T13:06:33.403Z,68.70
2017-09-01T13:09:01.522Z,61.30
2017-09-01T13:11:30.566Z,61.90
2017-09-01T13:14:01.496Z,60.90
2017-09-01T13:16:30.200Z,58.20
2017-09-01T13:18:59.193Z,58.10
2017-09-01T13:21:29.805Z,56.50
2017-09-01T13:23:59.631Z,54.40
2017-09-01T13:26:28.652Z,56.60
2017-09-01T13:28:57.809Z,55.30
2017-09-01T13:31:27.573Z,56.70
2017-09-01T13:33:56.778Z,65.50
2017-09-01T13:36:24.887Z,67.00
2017-09-01T13:38:53.155Z,65.90
2017-09-01T13:41:21.252Z,71.60
2017-09-01T13:43:49.433Z,67.60
2017-09-01T13:46:18.505Z,67.40
2017-09-01T13:48:48.189Z,65.80
2017-09-01T13:51:16.336Z,64.40
2017-09-01T13:53:44.430Z,61.30
2017-09-01T13:56:12.538Z,63.40
2017-09-01T13:58:42.568Z,66.40
2017-09-01T14:01:10.700Z,66.70
2017-09-01T14:03:39.188Z,69.40
2017-09-01T14:06:07.324Z,71.30
2017-09-01T14:08:36.477Z,71.00
2017-09-01T14:11:07.435Z,73.10
2017-09-01T14:13:35.644Z,72.00
2017-09-01T14:16:04.556Z,72.10
2017-09-01T14:18:33.489Z,72.60
2017-09-01T14:21:02.307Z,72.60
2017-09-01T14:23:30.480Z,73.50
2017-09-01T14:25:58.586Z,73.90
2017-09-01T14:28:26.684Z,74.30
2017-09-01T14:30:54.817Z,75.00
2017-09-01T14:33:23.645Z,76.30
2017-09-01T14:35:51.837Z,75.30
2017-09-01T14:38:19.941Z,75.10
2017-09-01T14:40:48.083Z,75.60
2017-09-01T14:43:16.279Z,75.30
2017-09-01T14:45:44.380Z,75.40
2017-09-01T14:48:12.583Z,75.00
2017-09-01T14:50:40.673Z,75.20
2017-09-01T14:53:08.863Z,76.80
2017-09-01T14:55:36.968Z,76.10
2017-09-01T14:58:05.100Z,77.90
2017-09-01T15:00:33.536Z,76.50
2017-09-01T15:03:01.637Z,77.50
2017-09-01T15:05:30.687Z,76.60
2017-09-01T15:07:59.603Z,76.80
2017-09-01T15:10:27.714Z,75.40
2017-09-01T15:12:55.822Z,74.30
2017-09-01T15:15:23.947Z,75.80
2017-09-01T15:17:52.046Z,75.00
2017-09-01T15:20:20.900Z,75.20
2017-09-01T15:22:49.949Z,75.70
2017-09-01T15:25:18.948Z,75.90
2017-09-01T15:27:48.005Z,76.80
2017-09-01T15:30:16.114Z,76.50
2017-09-01T15:32:44.992Z,75.90
2017-09-01T15:35:13.115Z,76.40
2017-09-01T15:37:41.620Z,77.10
2017-09-01T15:40:10.654Z,77.20
2017-09-01T15:42:38.746Z,77.30
2017-09-01T15:45:06.838Z,76.40
2017-09-01T15:47:36.093Z,78.00
2017-09-01T15:50:05.326Z,77.10
2017-09-01T15:52:33.485Z,77.40
2017-09-01T15:55:01.704Z,76.30
2017-09-01T15:57:29.805Z,76.60
2017-09-01T15:59:57.915Z,76.50
2017-09-01T16:02:26.860Z,78.40
2017-09-01T16:04:56.011Z,76.40
2017-09-01T16:07:25.832Z,78.80
2017-09-01T16:09:54.776Z,77.70
2017-09-01T16:12:22.873Z,77.00
2017-09-01T16:14:52.248Z,76.60
2017-09-01T16:17:20.373Z,76.20
2017-09-01T16:19:49.403Z,78.10
2017-09-01T16:22:19.315Z,79.00
2017-09-01T16:24:49.445Z,78.80
2017-09-01T16:27:18.359Z,79.30
2017-09-01T16:29:46.488Z,80.10
2017-09-01T16:32:15.340Z,75.90
2017-09-01T16:34:43.459Z,75.90
2017-09-01T16:37:11.622Z,77.40
2017-09-01T16:39:39.717Z,77.80
2017-09-01T16:42:07.801Z,75.50
2017-09-01T16:44:36.687Z,77.30
2017-09-01T16:47:04.820Z,77.50
2017-09-01T16:49:32.924Z,77.70
2017-09-01T16:52:01.012Z,78.50
2017-09-01T16:54:29.112Z,77.80
2017-09-01T16:56:57.188Z,78.20
2017-09-01T16:59:25.528Z,77.50
2017-09-01T17:01:55.584Z,78.40
2017-09-01T17:04:23.707Z,78.80
2017-09-01T17:06:51.875Z,79.70
2017-09-01T17:09:21.275Z,77.60
2017-09-01T17:11:49.481Z,78.40
2017-09-01T17:14:17.565Z,73.10
2017-09-01T17:16:46.612Z,73.70
2017-09-01T17:19:14.732Z,77.70
2017-09-01T17:21:43.722Z,73.40
2017-09-01T17:24:11.843Z,76.00
2017-09-01T17:26:39.929Z,76.80
2017-09-01T17:29:08.040Z,77.40
2017-09-01T17:31:40.740Z,75.60
2017-09-01T17:34:09.731Z,78.20
2017-09-01T17:36:37.815Z,77.20
2017-09-01T17:39:05.957Z,77.00
2017-09-01T17:41:34.118Z,74.50
2017-09-01T17:44:02.248Z,77.50
2017-09-01T17:46:31.211Z,78.80
2017-09-01T17:49:00.188Z,77.30
2017-09-01T17:51:28.402Z,72.60
2017-09-01T17:53:57.123Z,70.60
2017-09-01T17:56:26.063Z,73.50
2017-09-01T17:58:55.131Z,75.90
2017-09-01T18:01:23.415Z,78.00
2017-09-01T18:03:51.512Z,73.10
2017-09-01T18:06:20.535Z,73.00
2017-09-01T18:08:48.679Z,73.00
2017-09-01T18:11:16.778Z,72.80
2017-09-01T18:13:44.954Z,72.20
2017-09-01T18:16:13.863Z,74.90
2017-09-01T18:18:42.927Z,77.50
2017-09-01T18:21:11.036Z,77.50
2017-09-01T18:23:39.123Z,74.60
2017-09-01T18:26:07.381Z,76.00
2017-09-01T18:28:36.417Z,81.30
2017-09-01T18:31:05.221Z,84.10
2017-09-01T18:33:34.358Z,90.90
2017-09-01T18:36:02.508Z,90.40
2017-09-01T18:41:12.614Z,90.90
2017-09-01T18:43:57.983Z,91.40
2017-09-01T18:46:32.364Z,92.10
2017-09-01T18:49:01.619Z,92.60
2017-09-01T18:51:31.837Z,93.00
2017-09-01T18:54:00.059Z,93.30
2017-09-01T18:59:12.536Z,92.80
2017-09-01T19:01:45.260Z,92.40
2017-09-01T19:04:16.248Z,92.10
2017-09-01T19:06:57.334Z,92.20
2017-09-01T19:09:26.218Z,91.90
2017-09-01T19:11:55.262Z,92.10
2017-09-01T19:14:24.920Z,92.30
2017-09-01T19:16:56.388Z,92.20
2017-09-01T19:19:24.699Z,91.70
2017-09-01T19:25:09.931Z,91.40
2017-09-01T19:36:42.497Z,93.40
2017-09-01T19:39:16.572Z,93.20
2017-09-01T19:41:49.336Z,93.70
2017-09-01T19:44:18.906Z,93.80
2017-09-01T19:46:55.565Z,93.30
2017-09-01T19:49:25.872Z,92.90
2017-09-01T19:52:03.026Z,93.20
2017-09-01T19:55:01.273Z,93.20
2017-09-01T19:57:44.829Z,94.00
2017-09-01T20:00:32.741Z,93.90
2017-09-01T20:03:14.054Z,94.00
2017-09-01T20:05:49.451Z,94.00
2017-09-01T20:08:21.852Z,93.90
2017-09-01T20:11:02.784Z,94.10
2017-09-01T20:13:40.133Z,94.30
2017-09-01T20:16:14.400Z,94.40
2017-09-01T20:18:42.544Z,94.40
2017-09-01T20:21:10.686Z,94.00
2017-09-01T20:23:42.662Z,94.30
2017-09-01T20:26:11.645Z,94.10
2017-09-01T20:28:40.780Z,93.80
2017-09-01T20:31:08.891Z,93.80
2017-09-01T20:33:37.041Z,94.10
2017-09-01T20:36:05.160Z,94.20
2017-09-01T20:38:33.648Z,94.40
2017-09-01T20:41:02.156Z,94.30
2017-09-01T20:43:33.310Z,94.20
2017-09-01T20:46:01.682Z,94.10
2017-09-01T20:48:29.770Z,93.90
2017-09-01T20:50:59.716Z,93.90
2017-09-01T20:53:31.512Z,93.70
2017-09-01T20:55:59.692Z,93.70
2017-09-01T20:58:28.157Z,93.40
2017-09-01T21:00:56.257Z,93.80
2017-09-01T21:03:24.401Z,94.30
2017-09-01T21:05:52.596Z,94.20
2017-09-01T21:08:20.737Z,94.10
2017-09-01T21:10:48.938Z,94.30
2017-09-01T21:13:17.107Z,94.50
2017-09-01T21:15:45.345Z,94.20
2017-09-01T21:18:14.270Z,93.90
2017-09-01T21:20:42.378Z,94.30
2017-09-01T21:23:11.658Z,93.80
2017-09-01T21:25:39.793Z,93.50
2017-09-01T21:28:08.799Z,94.20
2017-09-01T21:30:37.108Z,94.00
2017-09-01T21:33:06.036Z,94.10
2017-09-01T21:35:34.472Z,94.40
2017-09-01T21:38:05.547Z,94.30
2017-09-01T21:40:33.684Z,94.40
2017-09-01T21:43:03.587Z,94.20
2017-09-01T21:45:31.684Z,93.90
2017-09-01T21:47:59.807Z,94.20
2017-09-01T21:50:28.199Z,93.80
2017-09-01T21:52:57.249Z,93.60
2017-09-01T21:55:25.366Z,93.90
2017-09-01T21:57:53.506Z,94.00
2017-09-01T22:00:21.624Z,94.20
2017-09-01T22:02:49.763Z,94.50
2017-09-01T22:05:17.896Z,94.50
2017-09-01T22:07:46.011Z,94.40
2017-09-01T22:10:14.195Z,94.20
2017-09-01T22:12:42.781Z,94.50
2017-09-01T22:15:11.187Z,94.40
2017-09-01T22:17:39.375Z,94.30
2017-09-01T22:20:07.679Z,94.10
2017-09-01T22:22:35.810Z,93.70
2017-09-01T22:25:04.234Z,93.70
2017-09-01T22:27:32.364Z,94.00
2017-09-01T22:30:01.195Z,94.20
2017-09-01T22:32:29.545Z,94.20
2017-09-01T22:34:58.499Z,94.40
2017-09-01T22:37:26.674Z,94.40
2017-09-01T22:39:54.767Z,94.00
2017-09-01T22:42:22.900Z,93.30
2017-09-01T22:44:51.098Z,93.10
2017-09-01T22:47:19.224Z,93.20
2017-09-01T22:49:48.276Z,93.30
2017-09-01T22:52:16.396Z,93.90
2017-09-01T22:54:44.512Z,93.90
2017-09-01T22:57:13.349Z,94.00
2017-09-01T22:59:42.088Z,94.00
2017-09-01T23:02:10.253Z,94.10
2017-09-01T23:04:41.687Z,94.20
2017-09-01T23:07:10.768Z,94.30
2017-09-01T23:09:38.872Z,94.10
2017-09-01T23:12:06.997Z,93.80
2017-09-01T23:14:35.103Z,94.20
2017-09-01T23:17:03.420Z,94.00
2017-09-01T23:19:31.567Z,94.60
2017-09-01T23:21:59.697Z,94.10
2017-09-01T23:24:28.225Z,94.20
2017-09-01T23:27:02.422Z,94.30
2017-09-01T23:29:30.768Z,94.40
2017-09-01T23:31:59.148Z,94.40
2017-09-01T23:34:27.292Z,94.30
2017-09-01T23:36:55.456Z,94.30
2017-09-01T23:39:23.834Z,94.20
2017-09-01T23:41:52.778Z,93.90
2017-09-01T23:44:21.665Z,93.90
2017-09-01T23:46:51.716Z,93.20
2017-09-01T23:49:20.176Z,93.40
2017-09-01T23:51:48.676Z,93.70
2017-09-01T23:54:16.815Z,93.30
2017-09-01T23:56:44.957Z,93.90
2017-09-01T23:59:13.328Z,93.70
